Time;durP1;ratioP1;P1;durP2;ratioP2;P2;SDS_P1;SDS_P2;PMS_P1;PMS_P2;Temp;Humidity;BMP_temperature;BMP_pressure;BME280_temperature;BME280_humidity;BME280_pressure;Samples;Min_cycle;Max_cycle;Signal;HPM_P1;HPM_P2
2022/12/11 00:00:54;;;;;;;27.03;17.33;;;;;;;10.50;100.00;99301.09;2103968;28;20615;-63
2022/12/11 00:01:54;;;;;;;25.50;17.20;;;;;;;10.49;100.00;99298.78;2094880;28;20515;-63
2022/12/11 00:02:55;;;;;;;38.17;18.90;;;;;;;10.48;100.00;99294.47;2098188;28;20219;-63
2022/12/11 00:03:55;;;;;;;26.10;17.53;;;;;;;10.45;100.00;99298.19;2099253;28;20204;-63
2022/12/11 00:04:56;;;;;;;23.60;17.23;;;;;;;10.45;100.00;99295.44;2091496;28;20484;-63
2022/12/11 00:05:56;;;;;;;26.70;17.07;;;;;;;10.43;100.00;99293.13;2096564;28;20179;-64
2022/12/11 00:06:57;;;;;;;35.53;19.40;;;;;;;10.36;100.00;99276.03;2089588;28;20211;-63
2022/12/11 00:07:57;;;;;;;28.77;18.40;;;;;;;10.40;100.00;99285.72;2105294;28;20187;-64
2022/12/11 00:08:58;;;;;;;24.83;17.00;;;;;;;10.35;100.00;99280.78;2091624;28;20246;-64
2022/12/11 00:09:58;;;;;;;22.57;16.43;;;;;;;10.50;100.00;99308.66;2089293;28;20191;-64
2022/12/11 00:10:59;;;;;;;22.97;16.30;;;;;;;10.51;100.00;99304.66;2093715;28;20709;-63
2022/12/11 00:12:01;;;;;;;23.53;16.10;;;;;;;10.52;100.00;99312.50;2097674;28;20192;-63
2022/12/11 00:13:01;;;;;;;26.20;16.73;;;;;;;10.49;100.00;99310.63;2099599;28;20688;-64
2022/12/11 00:14:02;;;;;;;22.27;15.80;;;;;;;10.55;100.00;99313.56;2103730;28;20425;-63
2022/12/11 00:15:02;;;;;;;24.47;16.80;;;;;;;10.56;100.00;99304.78;2097210;28;20299;-64
2022/12/11 00:16:03;;;;;;;26.47;16.80;;;;;;;10.24;100.00;99266.66;2089389;28;20176;-64
2022/12/11 00:17:04;;;;;;;24.93;16.30;;;;;;;10.15;100.00;99246.53;2089292;28;20216;-64
2022/12/11 00:18:04;;;;;;;27.30;16.67;;;;;;;10.42;100.00;99266.66;2102413;28;20187;-63
2022/12/11 00:19:05;;;;;;;23.40;16.40;;;;;;;10.59;100.00;99298.31;2100154;28;20267;-63
2022/12/11 00:20:06;;;;;;;21.93;16.23;;;;;;;10.58;100.00;99294.03;2101197;28;20195;-63
2022/12/11 00:21:10;;;;;;;25.50;17.30;;;;;;;10.59;100.00;99294.78;2101456;28;20191;-63
2022/12/11 00:22:11;;;;;;;20.97;15.70;;;;;;;10.29;100.00;99240.34;2100049;28;20425;-63
2022/12/11 00:23:11;;;;;;;22.93;15.80;;;;;;;10.58;100.00;99302.34;2104067;28;20448;-63
2022/12/11 00:24:12;;;;;;;23.13;15.37;;;;;;;9.91;100.00;99199.31;2097544;28;20184;-64
2022/12/11 00:25:12;;;;;;;31.47;16.23;;;;;;;10.60;100.00;99288.03;2097853;28;20198;-63
2022/12/11 00:26:14;;;;;;;25.60;16.30;;;;;;;10.61;100.00;99284.00;2096774;28;20195;-63
2022/12/11 00:27:15;;;;;;;30.97;16.70;;;;;;;10.60;100.00;99286.00;2096919;28;20194;-63
2022/12/11 00:28:19;;;;;;;26.47;15.97;;;;;;;9.65;100.00;99140.00;2096707;28;20913;-63
2022/12/11 00:29:19;;;;;;;21.97;15.77;;;;;;;10.56;100.00;99281.88;2096704;28;20256;-64
2022/12/11 00:30:20;;;;;;;24.67;16.07;;;;;;;10.58;100.00;99276.63;2097481;28;20536;-63
2022/12/11 00:31:21;;;;;;;25.30;15.90;;;;;;;10.61;100.00;99276.44;2096853;28;20183;-63
2022/12/11 00:32:21;;;;;;;23.00;16.53;;;;;;;10.58;100.00;99266.31;2097407;28;20180;-64
2022/12/11 00:33:22;;;;;;;25.93;16.00;;;;;;;10.54;100.00;99270.47;2097755;28;20991;-63
2022/12/11 00:34:22;;;;;;;25.00;16.23;;;;;;;10.51;100.00;99294.31;2097600;28;20187;-63
2022/12/11 00:35:23;;;;;;;20.37;14.67;;;;;;;10.55;100.00;99269.25;2097672;28;20218;-63
2022/12/11 00:36:25;;;;;;;23.13;16.10;;;;;;;10.58;100.00;99263.56;2103498;28;20187;-64
2022/12/11 00:37:26;;;;;;;31.30;17.20;;;;;;;10.12;100.00;99181.78;2095586;28;20199;-63
2022/12/11 00:38:27;;;;;;;24.57;16.37;;;;;;;10.55;100.00;99250.63;2097228;28;20423;-63
2022/12/11 00:39:27;;;;;;;23.80;16.00;;;;;;;10.56;100.00;99246.59;2099530;28;20961;-63
2022/12/11 00:40:28;;;;;;;21.90;15.37;;;;;;;9.90;100.00;99150.72;2090430;28;20242;-64
2022/12/11 00:41:29;;;;;;;23.03;15.93;;;;;;;10.60;100.00;99247.22;2096712;28;20240;-63
2022/12/11 00:42:29;;;;;;;25.33;16.33;;;;;;;10.61;100.00;99250.78;2089458;28;20179;-63
2022/12/11 00:43:29;;;;;;;23.97;15.70;;;;;;;10.56;100.00;99249.38;2097017;28;20535;-63
2022/12/11 00:44:30;;;;;;;23.60;16.27;;;;;;;10.39;100.00;99225.25;2090943;28;20231;-64
2022/12/11 00:45:35;;;;;;;24.43;16.10;;;;;;;10.31;100.00;99205.41;2094640;28;20266;-63
2022/12/11 00:46:35;;;;;;;24.77;16.50;;;;;;;10.59;100.00;99240.16;2108391;28;20250;-64
2022/12/11 00:47:36;;;;;;;24.03;15.30;;;;;;;10.59;100.00;99242.94;2109254;28;20481;-63
2022/12/11 00:48:36;;;;;;;24.47;15.47;;;;;;;10.57;100.00;99230.78;2097496;28;20702;-63
2022/12/11 00:49:37;;;;;;;32.10;16.53;;;;;;;9.82;100.00;99112.75;2096931;28;20257;-63
2022/12/11 00:50:38;;;;;;;32.47;16.87;;;;;;;10.51;100.00;99229.88;2096376;28;20305;-63
2022/12/11 00:51:38;;;;;;;44.30;17.53;;;;;;;10.29;100.00;99198.81;2089294;28;20600;-63
2022/12/11 00:52:39;;;;;;;20.73;14.93;;;;;;;10.52;100.00;99236.94;2097081;28;20425;-63
2022/12/11 00:53:39;;;;;;;20.67;15.53;;;;;;;10.50;100.00;99231.84;2096781;28;20317;-63
2022/12/11 00:54:40;;;;;;;19.10;14.20;;;;;;;10.59;100.00;99242.13;2096791;28;20184;-63
2022/12/11 00:55:41;;;;;;;19.83;14.77;;;;;;;10.58;100.00;99240.59;2092934;28;20226;-64
2022/12/11 00:56:42;;;;;;;19.20;14.10;;;;;;;10.60;100.00;99240.94;2089176;28;20187;-63
2022/12/11 00:57:43;;;;;;;19.10;14.13;;;;;;;10.62;100.00;99246.75;2091521;28;20442;-63
2022/12/11 00:58:44;;;;;;;18.67;15.07;;;;;;;9.87;100.00;99131.50;2097086;28;20226;-63
2022/12/11 00:59:45;;;;;;;19.53;15.00;;;;;;;10.65;100.00;99234.75;2096527;28;20288;-64
2022/12/11 01:00:47;;;;;;;19.20;14.87;;;;;;;10.01;100.00;99137.19;2088979;28;20415;-63
2022/12/11 01:01:47;;;;;;;18.40;13.53;;;;;;;10.64;100.00;99224.91;2089165;28;20237;-63
2022/12/11 01:02:48;;;;;;;18.90;14.57;;;;;;;10.65;100.00;99232.75;2095829;28;20529;-63
2022/12/11 01:03:49;;;;;;;17.03;13.63;;;;;;;10.68;100.00;99228.28;2097382;28;20205;-63
2022/12/11 01:04:50;;;;;;;18.90;14.13;;;;;;;10.67;100.00;99221.22;2092972;28;20450;-63
2022/12/11 01:05:52;;;;;;;15.97;12.43;;;;;;;10.65;100.00;99215.38;2089042;28;20192;-63
2022/12/11 01:06:53;;;;;;;17.93;13.37;;;;;;;10.65;100.00;99213.34;2091513;28;20176;-63
2022/12/11 01:07:53;;;;;;;18.30;14.37;;;;;;;10.64;100.00;99209.06;2097318;28;20918;-63
2022/12/11 01:10:24;;;;;;;17.97;13.53;;;;;;;10.65;100.00;99207.81;2088773;28;20168;-64
2022/12/11 01:11:24;;;;;;;17.30;13.80;;;;;;;10.61;100.00;99203.69;2090897;28;20474;-63
2022/12/11 01:12:27;;;;;;;18.30;13.07;;;;;;;10.61;100.00;99209.97;2097283;28;20910;-63
2022/12/11 01:13:27;;;;;;;14.40;12.03;;;;;;;9.87;100.00;99095.53;2097140;28;20183;-63
2022/12/11 01:14:28;;;;;;;16.40;12.73;;;;;;;10.65;100.00;99207.81;2097591;28;20425;-63
2022/12/11 01:15:37;;;;;;;18.97;13.20;;;;;;;10.67;100.00;99213.66;2090050;28;20684;-63
2022/12/11 01:16:37;;;;;;;16.23;12.63;;;;;;;10.70;100.00;99217.47;2089148;28;20199;-63
2022/12/11 01:17:38;;;;;;;18.00;12.90;;;;;;;10.15;100.00;99142.09;2089104;28;20908;-63
2022/12/11 01:18:39;;;;;;;15.67;12.20;;;;;;;10.65;100.00;99213.34;2089032;28;20255;-63
2022/12/11 01:19:39;;;;;;;17.30;12.73;;;;;;;10.68;100.00;99211.66;2089096;28;20501;-63
2022/12/11 01:20:41;;;;;;;13.47;11.57;;;;;;;10.51;100.00;99183.53;2088005;28;21005;-63
2022/12/11 01:21:42;;;;;;;14.87;11.73;;;;;;;10.71;100.00;99205.94;2093064;28;20251;-63
2022/12/11 01:22:42;;;;;;;15.00;12.07;;;;;;;10.67;100.00;99193.50;2104544;28;20409;-63
2022/12/11 01:23:43;;;;;;;14.60;12.30;;;;;;;10.72;100.00;99193.63;2097508;28;20181;-64
2022/12/11 01:24:43;;;;;;;14.27;12.13;;;;;;;10.07;100.00;99096.63;2105720;28;20199;-63
2022/12/11 01:25:44;;;;;;;15.50;12.27;;;;;;;10.69;100.00;99193.78;2098415;28;20210;-63
2022/12/11 01:26:44;;;;;;;13.70;11.83;;;;;;;10.69;100.00;99200.13;2103418;28;20267;-63
2022/12/11 01:27:45;;;;;;;14.60;11.93;;;;;;;10.61;100.00;99198.16;2099165;28;20192;-64
2022/12/11 01:28:48;;;;;;;13.67;11.63;;;;;;;9.42;100.00;99023.69;2097065;28;20210;-64
2022/12/11 01:29:49;;;;;;;14.87;11.67;;;;;;;10.40;100.00;99166.66;2097219;28;20199;-63
2022/12/11 01:30:49;;;;;;;14.20;11.63;;;;;;;10.15;100.00;99149.66;2096362;28;20438;-63
2022/12/11 01:31:50;;;;;;;15.13;11.87;;;;;;;10.53;100.00;99206.00;2096524;28;20274;-63
2022/12/11 01:32:51;;;;;;;13.00;11.07;;;;;;;10.45;100.00;99206.81;2088529;28;20180;-63
2022/12/11 01:33:55;;;;;;;14.17;12.13;;;;;;;10.52;100.00;99203.69;2088400;28;20287;-63
2022/12/11 01:34:55;;;;;;;13.07;11.20;;;;;;;10.48;100.00;99198.34;2096749;28;20489;-63
2022/12/11 01:35:55;;;;;;;15.23;11.73;;;;;;;10.40;100.00;99177.72;2104952;28;20944;-63
2022/12/11 01:36:56;;;;;;;13.97;11.90;;;;;;;10.48;100.00;99189.25;2102102;28;20191;-64
2022/12/11 01:37:58;;;;;;;13.73;11.80;;;;;;;10.49;100.00;99197.09;2102686;28;20208;-64
2022/12/11 01:38:58;;;;;;;14.70;12.07;;;;;;;10.51;100.00;99205.69;2101376;28;20196;-63
2022/12/11 01:40:00;;;;;;;14.77;12.30;;;;;;;10.57;100.00;99203.06;2092199;28;20420;-64
2022/12/11 01:41:00;;;;;;;12.70;11.20;;;;;;;10.52;100.00;99212.78;2097601;28;20182;-64
2022/12/11 01:42:01;;;;;;;14.40;12.23;;;;;;;10.59;100.00;99215.22;2098926;28;20998;-64
2022/12/11 01:43:01;;;;;;;14.90;11.93;;;;;;;10.38;100.00;99187.72;2098719;28;20206;-64
2022/12/11 01:44:07;;;;;;;14.73;11.63;;;;;;;10.58;100.00;99219.22;2105656;28;20195;-63
2022/12/11 01:45:22;;;;;;;14.13;11.87;;;;;;;10.63;100.00;99218.59;2100681;28;20720;-63
2022/12/11 01:46:24;;;;;;;13.73;11.37;;;;;;;10.58;100.00;99218.44;2098769;28;20479;-63
2022/12/11 01:47:24;;;;;;;13.57;11.53;;;;;;;10.56;100.00;99216.16;2098710;28;20580;-64
2022/12/11 01:48:29;;;;;;;14.80;11.30;;;;;;;10.61;100.00;99234.91;2103966;28;20472;-64
2022/12/11 01:49:29;;;;;;;13.10;10.57;;;;;;;10.11;100.00;99160.09;2102254;28;20198;-63
2022/12/11 01:50:33;;;;;;;13.20;11.40;;;;;;;10.62;100.00;99225.38;2098206;28;20957;-63
2022/12/11 01:51:40;;;;;;;14.27;10.97;;;;;;;10.61;100.00;99220.31;2095359;28;20275;-63
2022/12/11 01:52:43;;;;;;;14.70;11.10;;;;;;;8.93;100.00;98954.03;2090340;28;20496;-63
2022/12/11 01:53:50;;;;;;;15.37;10.97;;;;;;;10.60;100.00;99222.28;2093831;28;20425;-63
2022/12/11 01:54:50;;;;;;;14.10;11.13;;;;;;;10.59;100.00;99226.31;2101852;28;20419;-64
2022/12/11 01:55:53;;;;;;;13.43;10.80;;;;;;;10.54;100.00;99204.78;2090649;28;20415;-63
2022/12/11 01:56:59;;;;;;;14.20;11.07;;;;;;;10.63;100.00;99209.50;2098880;28;20180;-64
2022/12/11 01:58:01;;;;;;;15.23;11.40;;;;;;;10.59;100.00;99218.00;2090646;28;20407;-64
2022/12/11 01:59:06;;;;;;;12.93;10.53;;;;;;;10.60;100.00;99235.41;2098065;28;20446;-63
2022/12/11 02:00:07;;;;;;;14.67;11.10;;;;;;;10.62;100.00;99228.16;2091609;28;20438;-63
2022/12/11 02:01:13;;;;;;;14.43;11.40;;;;;;;10.60;100.00;99221.53;2095900;28;20437;-63
2022/12/11 02:02:21;;;;;;;17.33;11.73;;;;;;;10.66;100.00;99233.53;2104124;28;20439;-63
2022/12/11 02:03:21;;;;;;;17.37;11.67;;;;;;;10.41;100.00;99178.50;2101156;28;20481;-64
2022/12/11 02:04:23;;;;;;;15.20;11.77;;;;;;;10.72;100.00;99237.19;2098718;28;20442;-63
2022/12/11 02:05:23;;;;;;;15.50;11.73;;;;;;;10.75;100.00;99216.84;2098653;28;20570;-64
2022/12/11 02:06:38;;;;;;;15.60;11.83;;;;;;;10.74;100.00;99215.31;2096238;28;20419;-63
2022/12/11 02:07:53;;;;;;;16.13;11.60;;;;;;;10.33;100.00;99133.75;2090271;28;20279;-63
2022/12/11 02:08:53;;;;;;;15.73;12.57;;;;;;;10.63;100.00;99196.44;2094311;28;20449;-64
2022/12/11 02:09:54;;;;;;;16.43;12.50;;;;;;;10.58;100.00;99204.59;2098477;28;20453;-63
2022/12/11 02:11:17;;;;;;;16.67;12.37;;;;;;;10.53;100.00;99213.53;2096215;28;20175;-63
2022/12/11 02:12:23;;;;;;;18.17;12.60;;;;;;;10.46;100.00;99208.34;2093641;28;20190;-64
2022/12/11 02:14:02;;;;;;;17.10;13.07;;;;;;;10.37;100.00;99217.44;2101985;28;20880;-64
2022/12/11 02:15:15;;;;;;;18.53;13.43;;;;;;;10.26;100.00;99210.84;2099383;28;20473;-63
2022/12/11 02:16:23;;;;;;;19.67;13.40;;;;;;;10.02;100.00;99204.34;2106905;28;20447;-63
2022/12/11 02:17:33;;;;;;;20.07;14.33;;;;;;;10.00;100.00;99226.19;2098587;28;20910;-63
2022/12/11 02:18:41;;;;;;;20.33;13.80;;;;;;;9.96;100.00;99222.81;2106924;28;20954;-63
2022/12/11 02:19:57;;;;;;;22.73;14.27;;;;;;;9.89;100.00;99212.81;2098616;28;20434;-63
2022/12/11 02:21:07;;;;;;;19.87;13.73;;;;;;;9.91;100.00;99220.66;2089958;28;20979;-63
2022/12/11 02:22:12;;;;;;;21.37;14.97;;;;;;;9.64;100.00;99176.41;2098442;28;20892;-63
2022/12/11 02:23:15;;;;;;;22.10;15.77;;;;;;;9.98;100.00;99214.81;2090429;28;20476;-63
2022/12/11 02:24:30;;;;;;;20.97;15.13;;;;;;;10.01;100.00;99219.44;2098132;28;20825;-63
2022/12/11 02:25:40;;;;;;;19.03;14.13;;;;;;;10.09;100.00;99229.75;2090388;28;20413;-63
2022/12/11 02:27:10;;;;;;;19.57;14.83;;;;;;;10.14;100.00;99207.00;2098754;28;20883;-62
2022/12/11 02:28:13;;;;;;;21.43;14.57;;;;;;;10.08;100.00;99188.69;2092647;28;20450;-63
2022/12/11 02:29:36;;;;;;;20.33;15.07;;;;;;;9.24;100.00;99067.94;2100167;28;20421;-63
2022/12/11 02:30:39;;;;;;;19.93;14.90;;;;;;;10.20;100.00;99174.69;2098771;28;20933;-63
2022/12/11 02:31:46;;;;;;;20.60;14.73;;;;;;;10.18;100.00;99159.78;2092950;28;20442;-63
2022/12/11 02:32:57;;;;;;;22.80;15.73;;;;;;;10.04;100.00;99155.66;2095322;28;20918;-63
2022/12/11 02:34:04;;;;;;;23.60;16.30;;;;;;;9.98;100.00;99170.53;2093338;28;20858;-63
2022/12/11 02:35:30;;;;;;;21.97;15.97;;;;;;;10.08;100.00;99183.94;2095489;28;20829;-63
2022/12/11 02:36:36;;;;;;;22.63;16.83;;;;;;;9.35;100.00;99071.78;2086607;28;20800;-63
2022/12/11 02:37:40;;;;;;;21.70;15.70;;;;;;;10.25;100.00;99195.47;2092812;28;20430;-63
2022/12/11 02:38:49;;;;;;;21.27;15.90;;;;;;;9.82;100.00;99135.66;2098668;28;20976;-64
2022/12/11 02:39:52;;;;;;;23.63;16.63;;;;;;;10.11;100.00;99185.78;2098105;28;20446;-63
2022/12/11 02:40:57;;;;;;;24.67;16.80;;;;;;;10.20;100.00;99207.16;2093061;28;20483;-64
2022/12/11 02:41:58;;;;;;;21.47;16.47;;;;;;;10.25;100.00;99195.47;2098350;28;20445;-63
2022/12/11 02:43:03;;;;;;;22.20;16.73;;;;;;;10.20;100.00;99191.28;2097894;28;20431;-63
2022/12/11 02:44:05;;;;;;;22.67;16.60;;;;;;;10.19;100.00;99205.63;2096634;28;20929;-64
2022/12/11 02:45:08;;;;;;;22.30;16.70;;;;;;;10.11;100.00;99176.72;2090023;28;20431;-63
2022/12/11 02:46:10;;;;;;;22.87;16.50;;;;;;;10.24;100.00;99191.16;2090047;28;20468;-63
2022/12/11 02:47:15;;;;;;;20.67;15.43;;;;;;;10.34;100.00;99203.72;2090210;28;20428;-63
2022/12/11 02:48:17;;;;;;;20.57;16.10;;;;;;;10.41;100.00;99204.19;2089970;28;20515;-63
2022/12/11 02:49:20;;;;;;;20.73;15.17;;;;;;;10.43;100.00;99226.66;2096765;28;20480;-64
2022/12/11 02:50:22;;;;;;;21.53;15.70;;;;;;;10.01;100.00;99164.09;2098180;28;21090;-63
2022/12/11 02:51:28;;;;;;;21.63;15.90;;;;;;;10.21;100.00;99203.94;2092676;28;20449;-63
2022/12/11 02:52:31;;;;;;;24.90;16.70;;;;;;;10.17;100.00;99208.84;2089887;28;20440;-63
2022/12/11 02:53:35;;;;;;;22.73;16.60;;;;;;;10.23;100.00;99208.97;2093579;28;20921;-63
2022/12/11 02:54:38;;;;;;;21.50;16.47;;;;;;;10.27;100.00;99210.38;2098147;28;20473;-63
2022/12/11 02:55:41;;;;;;;22.90;17.07;;;;;;;10.29;100.00;99209.88;2095474;28;20883;-63
2022/12/11 02:56:58;;;;;;;21.90;16.70;;;;;;;10.44;100.00;99217.09;2089941;28;20426;-63
2022/12/11 02:58:13;;;;;;;22.83;17.10;;;;;;;9.62;100.00;99091.13;2093004;28;20444;-63
2022/12/11 02:59:20;;;;;;;20.53;15.63;;;;;;;10.52;100.00;99206.47;2098144;28;20441;-63
2022/12/11 03:00:20;;;;;;;22.90;15.90;;;;;;;10.13;100.00;99141.81;2094550;28;20498;-63
2022/12/11 03:01:21;;;;;;;20.43;15.10;;;;;;;9.94;100.00;99114.59;2091872;28;20433;-64
2022/12/11 03:02:21;;;;;;;19.93;15.00;;;;;;;10.51;100.00;99185.56;2099516;28;20262;-63
2022/12/11 03:03:22;;;;;;;19.27;14.70;;;;;;;10.59;100.00;99198.59;2105717;28;20264;-63
2022/12/11 03:04:23;;;;;;;19.07;14.67;;;;;;;10.24;100.00;99139.31;2089923;28;20240;-63
2022/12/11 03:05:26;;;;;;;21.83;16.17;;;;;;;10.48;100.00;99192.00;2097555;28;20251;-63
2022/12/11 03:06:38;;;;;;;21.83;15.70;;;;;;;9.98;100.00;99132.56;2104822;28;20444;-63
2022/12/11 03:07:41;;;;;;;22.60;15.07;;;;;;;10.55;100.00;99211.09;2099119;28;20446;-64
2022/12/11 03:08:42;;;;;;;20.40;15.57;;;;;;;10.53;100.00;99202.47;2104591;28;20491;-63
2022/12/11 03:09:45;;;;;;;20.20;14.87;;;;;;;10.61;100.00;99209.97;2100989;28;20441;-63
2022/12/11 03:10:45;;;;;;;18.37;14.27;;;;;;;10.67;100.00;99219.19;2097523;28;20199;-63
2022/12/11 03:11:46;;;;;;;22.17;14.87;;;;;;;10.70;100.00;99225.78;2094542;28;20991;-63
2022/12/11 03:12:51;;;;;;;19.20;14.53;;;;;;;9.99;100.00;99108.44;2089841;28;20179;-63
2022/12/11 03:13:53;;;;;;;18.27;14.20;;;;;;;10.21;100.00;99125.63;2089345;28;20210;-63
2022/12/11 03:14:54;;;;;;;17.90;13.83;;;;;;;10.13;100.00;99111.34;2091894;28;20422;-63
2022/12/11 03:16:32;;;;;;;17.97;14.03;;;;;;;10.80;100.00;99207.91;2105607;28;20436;-63
2022/12/11 03:18:08;;;;;;;15.73;13.00;;;;;;;10.84;100.00;99206.53;2093948;28;20435;-63
2022/12/11 03:19:22;;;;;;;20.73;13.97;;;;;;;10.84;100.00;99197.44;2093444;28;20418;-63
2022/12/11 03:20:46;;;;;;;17.33;13.57;;;;;;;10.81;100.00;99192.84;2098121;28;20400;-63
2022/12/11 03:22:00;;;;;;;17.17;13.63;;;;;;;10.85;100.00;99204.50;2089654;28;20486;-63
2022/12/11 03:23:36;;;;;;;17.57;13.60;;;;;;;10.85;100.00;99215.59;2093482;28;20410;-63
2022/12/11 03:24:45;;;;;;;16.63;12.87;;;;;;;10.89;100.00;99221.75;2100203;28;20459;-63
2022/12/11 03:26:02;;;;;;;18.03;12.73;;;;;;;10.88;100.00;99226.53;2091671;28;20437;-64
2022/12/11 03:27:25;;;;;;;15.27;11.83;;;;;;;10.90;100.00;99250.97;2094040;28;20455;-63
2022/12/11 03:28:29;;;;;;;16.87;13.17;;;;;;;10.89;100.00;99263.31;2089724;28;20461;-64
2022/12/11 03:29:41;;;;;;;14.97;11.80;;;;;;;10.23;100.00;99167.47;2090134;28;20426;-63
2022/12/11 03:30:44;;;;;;;16.27;12.40;;;;;;;10.79;100.00;99253.47;2089387;28;20418;-64
2022/12/11 03:32:00;;;;;;;18.47;13.30;;;;;;;10.71;100.00;99260.59;2097637;28;20441;-63
2022/12/11 03:33:05;;;;;;;16.80;13.37;;;;;;;10.30;100.00;99217.72;2089896;28;20411;-63
2022/12/11 03:34:22;;;;;;;17.03;13.23;;;;;;;10.56;100.00;99276.31;2089902;28;20413;-63
2022/12/11 03:35:33;;;;;;;17.60;14.27;;;;;;;10.45;100.00;99289.88;2089428;28;20404;-63
2022/12/11 03:36:38;;;;;;;19.13;14.40;;;;;;;9.35;100.00;99129.06;2096861;28;20440;-63
2022/12/11 03:37:41;;;;;;;20.13;14.97;;;;;;;10.15;100.00;99277.72;2089232;28;20936;-63
2022/12/11 03:38:55;;;;;;;20.87;16.40;;;;;;;10.00;100.00;99271.22;2089778;28;20446;-63
2022/12/11 03:40:01;;;;;;;22.97;15.63;;;;;;;10.00;100.00;99284.31;2089854;28;20420;-63
2022/12/11 03:41:04;;;;;;;21.63;15.67;;;;;;;9.66;100.00;99268.75;2097560;28;20865;-63
2022/12/11 03:42:08;;;;;;;23.37;16.77;;;;;;;8.99;100.00;99160.16;2089728;28;20530;-63
2022/12/11 03:43:10;;;;;;;24.90;17.65;;;;;;;8.90;100.00;99146.31;2097198;28;20910;-63
2022/12/11 03:44:12;;;;;;;20.87;16.73;;;;;;;9.67;100.00;99275.03;2104469;28;20233;-63
2022/12/11 03:45:15;;;;;;;22.63;17.63;;;;;;;9.61;100.00;99269.34;2099962;28;20442;-63
2022/12/11 03:46:19;;;;;;;23.88;17.17;;;;;;;9.49;100.00;99250.13;2092836;28;20189;-63
2022/12/11 03:47:23;;;;;;;23.23;17.33;;;;;;;9.59;100.00;99269.03;2089518;28;20548;-63
2022/12/11 03:48:29;;;;;;;22.60;16.27;;;;;;;9.58;100.00;99275.78;2093206;28;20461;-63
2022/12/11 03:49:35;;;;;;;21.73;16.47;;;;;;;9.64;100.00;99284.25;2113934;28;20210;-63
2022/12/11 03:50:36;;;;;;;20.40;16.55;;;;;;;9.64;100.00;99273.19;2112042;28;20943;-63
2022/12/11 03:51:37;;;;;;;20.13;15.43;;;;;;;8.32;100.00;99075.72;2095686;28;20560;-63
2022/12/11 03:52:43;;;;;;;20.58;16.02;;;;;;;9.61;100.00;99282.41;2090317;28;20484;-63
2022/12/11 03:53:44;;;;;;;19.55;15.20;;;;;;;9.11;100.00;99203.47;2097079;28;20554;-63
2022/12/11 03:54:48;;;;;;;21.23;16.50;;;;;;;9.52;100.00;99283.16;2092348;28;20828;-63
2022/12/11 03:55:50;;;;;;;20.90;15.77;;;;;;;9.22;100.00;99239.00;2089260;28;20424;-63
2022/12/11 03:56:54;;;;;;;19.40;15.80;;;;;;;9.48;100.00;99273.47;2096785;28;20444;-63
2022/12/11 03:57:55;;;;;;;19.73;16.13;;;;;;;9.58;100.00;99292.38;2104139;28;20505;-63
2022/12/11 03:58:55;;;;;;;20.03;15.80;;;;;;;9.53;100.00;99275.63;2105838;28;20479;-63
2022/12/11 03:59:56;;;;;;;17.63;14.63;;;;;;;9.67;100.00;99286.88;2097043;28;20648;-63
2022/12/11 04:00:57;;;;;;;18.47;14.70;;;;;;;9.70;100.00;99274.13;2088904;28;20195;-63
2022/12/11 04:01:58;;;;;;;17.20;14.07;;;;;;;9.41;100.00;99235.03;2094257;28;20460;-63
2022/12/11 04:03:14;;;;;;;16.00;13.67;;;;;;;9.20;100.00;99203.50;2104688;28;20205;-63
2022/12/11 04:04:15;;;;;;;16.63;14.23;;;;;;;8.47;100.00;99076.69;2100117;28;20160;-63
2022/12/11 04:05:15;;;;;;;16.07;13.73;;;;;;;9.73;100.00;99259.41;2104624;28;20456;-63
2022/12/11 04:06:16;;;;;;;21.47;14.83;;;;;;;9.53;100.00;99237.69;2097458;28;20633;-63
2022/12/11 04:07:16;;;;;;;17.50;14.57;;;;;;;9.74;100.00;99269.22;2106282;28;20186;-63
2022/12/11 04:08:19;;;;;;;19.00;13.90;;;;;;;9.73;100.00;99262.91;2098373;28;20199;-63
2022/12/11 04:09:20;;;;;;;17.23;13.90;;;;;;;9.76;100.00;99269.53;2104461;28;20203;-63
2022/12/11 04:10:20;;;;;;;15.83;13.57;;;;;;;9.87;100.00;99276.16;2100438;28;20421;-64
2022/12/11 04:11:35;;;;;;;16.13;13.90;;;;;;;9.90;100.00;99277.22;2101431;28;20690;-64
2022/12/11 04:12:36;;;;;;;17.43;14.50;;;;;;;9.96;100.00;99281.69;2100672;28;20190;-63
2022/12/11 04:13:37;;;;;;;14.70;12.97;;;;;;;10.01;100.00;99285.84;2101803;28;20518;-63
2022/12/11 04:15:57;;;;;;;18.37;12.33;;;;;;;10.04;100.00;99287.75;2101917;28;20456;-63
2022/12/11 04:16:59;;;;;;;15.13;12.00;;;;;;;10.03;100.00;99284.16;2102500;28;20459;-63
2022/12/11 04:24:37;;;;;;;13.77;12.27;;;;;;;9.99;100.00;99282.78;2090355;28;20385;-64
2022/12/11 04:25:37;;;;;;;16.10;13.13;;;;;;;10.05;100.00;99284.47;2106194;28;20440;-63
2022/12/11 04:26:38;;;;;;;15.23;12.43;;;;;;;9.98;100.00;99272.91;2097573;28;20634;-63
2022/12/11 04:27:50;;;;;;;13.93;12.10;;;;;;;9.84;100.00;99251.41;2097628;28;20192;-63
2022/12/11 04:28:50;;;;;;;14.90;12.23;;;;;;;9.89;100.00;99276.44;2097437;28;20278;-63
2022/12/11 04:29:51;;;;;;;13.53;11.90;;;;;;;9.88;100.00;99279.66;2097529;28;20515;-64
2022/12/11 04:30:51;;;;;;;14.30;12.43;;;;;;;9.75;100.00;99259.69;2101972;28;20181;-64
2022/12/11 04:31:52;;;;;;;15.10;12.80;;;;;;;9.93;100.00;99273.53;2103228;28;20215;-63
2022/12/11 04:32:53;;;;;;;15.53;12.90;;;;;;;10.00;100.00;99279.53;2100105;28;21114;-63
2022/12/11 04:33:53;;;;;;;14.93;12.53;;;;;;;9.91;100.00;99260.19;2104089;28;20174;-63
2022/12/11 04:34:54;;;;;;;15.43;12.80;;;;;;;10.01;100.00;99272.00;2097417;28;20430;-63
2022/12/11 04:35:59;;;;;;;14.00;12.47;;;;;;;9.95;100.00;99279.41;2097647;28;20181;-64
2022/12/11 04:36:59;;;;;;;14.80;13.20;;;;;;;9.95;100.00;99282.16;2097308;28;20261;-63
2022/12/11 04:38:00;;;;;;;14.40;12.90;;;;;;;9.87;100.00;99275.38;2090295;28;20443;-64
2022/12/11 04:39:00;;;;;;;14.93;13.33;;;;;;;9.78;100.00;99272.63;2089207;28;20197;-64
2022/12/11 04:40:01;;;;;;;15.93;14.03;;;;;;;9.70;100.00;99274.91;2094123;28;20289;-63
2022/12/11 04:41:10;;;;;;;15.87;13.77;;;;;;;9.66;100.00;99267.97;2096938;28;20234;-63
2022/12/11 04:42:11;;;;;;;16.27;13.53;;;;;;;9.66;100.00;99277.03;2093562;28;20497;-64
2022/12/11 04:43:11;;;;;;;17.37;13.63;;;;;;;9.63;100.00;99271.66;2091867;28;20449;-64
2022/12/11 04:44:11;;;;;;;15.83;14.10;;;;;;;9.57;100.00;99277.03;2099103;28;20604;-63
2022/12/11 04:45:12;;;;;;;16.13;14.20;;;;;;;9.55;100.00;99276.72;2105113;28;20282;-63
2022/12/11 04:46:20;;;;;;;15.50;13.80;;;;;;;9.51;100.00;99275.31;2097664;28;20181;-63
2022/12/11 04:47:21;;;;;;;15.50;13.95;;;;;;;8.64;100.00;99150.53;2097266;28;20272;-63
2022/12/11 04:48:21;;;;;;;17.27;14.47;;;;;;;9.49;100.00;99294.38;2097268;28;20210;-63
2022/12/11 04:49:22;;;;;;;16.50;13.63;;;;;;;9.39;100.00;99262.38;2104148;28;20220;-63
2022/12/11 04:50:22;;;;;;;16.10;13.53;;;;;;;9.44;100.00;99265.28;2100193;28;20204;-63
2022/12/11 04:51:23;;;;;;;16.17;13.83;;;;;;;9.66;100.00;99296.41;2101567;28;20190;-63
2022/12/11 04:52:23;;;;;;;14.13;12.73;;;;;;;9.73;100.00;99295.34;2102427;28;20198;-64
2022/12/11 04:53:24;;;;;;;15.57;13.43;;;;;;;9.79;100.00;99297.03;2099356;28;20240;-63
2022/12/11 04:54:24;;;;;;;13.50;11.97;;;;;;;9.87;100.00;99297.50;2104565;28;20258;-63
2022/12/11 04:55:25;;;;;;;14.10;12.47;;;;;;;9.07;100.00;99175.22;2097631;28;20188;-63
2022/12/11 04:56:25;;;;;;;12.83;11.53;;;;;;;9.92;100.00;99294.13;2105819;28;20205;-63
2022/12/11 04:57:26;;;;;;;13.10;11.70;;;;;;;9.54;100.00;99232.94;2098212;28;20197;-63
2022/12/11 04:58:27;;;;;;;13.07;11.50;;;;;;;9.99;100.00;99302.91;2096486;28;20230;-63
2022/12/11 04:59:27;;;;;;;12.77;11.47;;;;;;;10.02;100.00;99312.28;2096592;28;20232;-63
2022/12/11 05:00:28;;;;;;;12.80;11.43;;;;;;;10.03;100.00;99325.66;2100851;28;20424;-63
2022/12/11 05:01:28;;;;;;;12.13;10.87;;;;;;;9.70;100.00;99277.69;2100177;28;20644;-63